Adaville, Iowa
Current Conditions -  °F | °C
As of 10:35 AM on Tuesday 27 Jan 2015 (Local Time) from KLRJ Reporting Station
Haze Haze  
Wind Chill: -4°   Ceiling: 300
Heat Index:   Visibility: 1.7mi
Dew Point:   Wind: 7mph
Humidity: 100%   Direction: 140°SE
Pressure: 30.14"   Gusts: NA
Location:  42.7082°N, 96.485°W
Report Text: KLRJ 271635Z AUTO 14006KT 1 3/4SM BR OVC003 00/00 A3014 RMK AO2
Loading
Personal Weather Stations






























Interactive Weather Map New forecast layout! Learn more

10-Day Weather Forecast

Advertisements
Track Severe Weather on mobile